Weather observations for the past three days for
Yakima Air Terminal - McAllister Field
Imperial (Metric)
Date Time (pdt) Wind (mph) Vis. (mi.) Weather Sky Cond. Temperature (ºF) Relative Humidity Wind Chill (°F) Heat Index (°F) Pressure Precipitation (in)
Air Dwpt 6 hour altimeter (in) sea level (mb) 1 hr 3 hr 6 hr
Max. Min.
07 17:53 SW 7 10.00 Fair CLR 78.1 33.1 19% 77 29.88 1011.3
07 16:53 E 6 10.00 Fair CLR 79 32 79 69.1 18% 78 29.88 1011.4
07 15:53 E 5 10.00 Fair CLR 77 33.1 20% 77 29.91 1012.3
07 14:53 E 6 10.00 Fair CLR 77 33.1 20% 77 29.93 1013.0
07 13:53 Vrbl 3 10.00 Fair CLR 75 33.1 22% 76 29.94 1013.5
07 12:53 E 6 10.00 Fair CLR 75 34 22% 76 29.96 1013.9
07 11:53 S 3 10.00 Fair CLR 72 30.9 22% 29.97 1014.4
07 10:53 Vrbl 5 10.00 Fair CLR 69.1 32 69.1 50 25% 29.98 1014.9
07 09:53 Calm 10.00 Fair CLR 64.9 36 34% 29.99 1015.2
07 08:53 NW 10 10.00 Fair CLR 62.1 36 38% 30 1015.5
07 07:53 N 14 G 26 10.00 Light Rain CLR 60.1 36 41% 29.99 1014.9
07 06:53 NW 7 10.00 Fair CLR 55.9 37.9 51% 29.98 1014.8
07 05:53 W 9 10.00 Fair CLR 51.1 37.9 61% 29.97 1014.6
07 04:53 NW 10 10.00 Fair CLR 54 39 63 52 57% 29.97 1014.4
07 03:53 NW 17 G 24 10.00 Fair CLR 55 39.9 57% 29.96 1014.1
07 02:53 S 5 10.00 Fair CLR 55.9 39.9 55% 29.97 1014.2
07 01:53 Vrbl 7 10.00 Light Rain CLR 60.1 39.9 48% 29.95 1013.5
07 00:53 Vrbl 5 G 17 10.00 Light Rain CLR 61 41 48% 29.94 1013.1
06 23:53 NW 15 10.00 Light Rain CLR 62.1 42.1 48% 29.94 1013.1
06 22:53 N 12 10.00 Light Rain CLR 62.1 42.1 78.1 62.1 48% 29.95 1013.6
06 21:53 N 14 10.00 Light Rain CLR 66 39.9 39% 29.94 1013.2
06 20:53 W 13 10.00 Light Rain CLR 70 37 30% 29.93 1012.7
06 19:53 W 14 G 26 10.00 Light Rain CLR 73 36 26% 29.91 1012.3
06 18:53 W 17 G 26 10.00 Light Rain CLR 75 35.1 23% 76 29.9 1012.0
06 17:53 W 18 G 28 10.00 Light Rain CLR 75.9 37 25% 77 29.9 1011.9
06 16:53 W 15 G 29 10.00 Light Rain CLR 78.1 39 89.1 78.1 25% 78 29.88 1011.6
06 15:53 W 18 G 30 10.00 Light Rain CLR 81 37.9 21% 79 29.87 1011.2
06 14:53 W 20 G 28 10.00 Fair CLR 86 39.9 20% 83 29.88 1011.1
06 13:53 NW 15 G 21 10.00 Fair CLR 89.1 39.9 18% 85 29.87 1011.0
06 12:53 W 8 10.00 Fair CLR 84 42.1 23% 81 29.88 1011.3
06 11:53 SW 8 10.00 Fair CLR 82.9 45 26% 81 29.89 1011.5
06 10:53 Calm 10.00 Fair CLR 80.1 45 80.1 46.9 29% 79 29.9 1011.8
06 09:53 W 5 10.00 Fair CLR 78.1 45 31% 78 29.91 1012.2
06 08:53 W 5 10.00 Fair CLR 73 46 38% 29.93 1012.7
06 07:53 W 5 10.00 Fair CLR 63 44.1 50% 29.93 1012.9
06 06:53 W 5 10.00 Fair CLR 57 42.1 58% 29.93 1012.9
06 05:53 Calm 10.00 Fair CLR 52 39 61% 29.91 1012.4
06 04:53 Vrbl 3 10.00 Fair CLR 46.9 39 72 46.9 74% 29.9 1012.2
06 03:53 W 5 10.00 Fair CLR 48.9 39.9 71% 48 29.89 1011.8
06 02:53 W 3 10.00 Fair CLR 51.1 41 69% 29.89 1011.5
06 01:53 W 3 10.00 Fair CLR 53.1 43 69% 29.88 1011.4
06 00:53 SW 6 10.00 Fair CLR 53.1 43 69% 29.88 1011.2
05 23:53 Vrbl 5 10.00 Fair CLR 63 42.1 47% 29.87 1010.9
05 22:53 NW 8 10.00 Fair CLR 72 39 84.9 68 30% 29.86 1010.5
05 21:53 N 15 G 22 10.00 Fair CLR 75 39 27% 77 29.85 1010.1
05 20:53 SW 9 10.00 Fair CLR 75 39 27% 77 29.83 1009.3
05 19:53 E 5 10.00 A Few Clouds FEW100 80.1 43 27% 79 29.81 1008.7
05 18:53 SE 5 10.00 Fair CLR 82.9 42.1 24% 81 29.8 1008.2
05 17:53 SE 7 10.00 A Few Clouds FEW110 84 39.9 21% 81 29.8 1008.4
05 16:53 Vrbl 5 10.00 Fair CLR 84 39.9 86 80.1 21% 81 29.81 1008.6
05 15:53 Vrbl 6 10.00 Fair CLR 84.9 41 21% 82 29.82 1008.9
05 14:53 NE 6 10.00 Fair CLR 84 39.9 21% 81 29.84 1009.5
05 13:53 E 7 10.00 Fair CLR 84.9 37.9 19% 82 29.84 1009.7
05 12:53 Calm 10.00 Fair CLR 84 37.9 19% 81 29.86 1010.2
05 11:53 N 9 10.00 A Few Clouds FEW110 81 39 22% 79 29.86 1010.3
05 10:53 N 9 10.00 A Few Clouds FEW110 80.1 41 80.1 57.9 25% 79 29.87 1010.5
05 09:53 N 5 10.00 Fair CLR 75 45 34% 77 29.87 1010.7
05 08:53 N 3 10.00 A Few Clouds FEW110 70 45 41% 29.87 1010.6
05 07:53 NW 6 10.00 A Few Clouds FEW110 68 45 44% 29.86 1010.4
05 06:53 NW 7 10.00 Partly Cloudy SCT110 64 43 46% 29.85 1009.9
05 05:53 W 6 10.00 Partly Cloudy SCT110 57.9 43 58% 29.82 1009.2
05 04:53 NW 8 10.00 Mostly Cloudy BKN110 64 42.1 73 64 45% 29.81 1008.5
05 03:53 W 8 10.00 Partly Cloudy SCT110 64 42.1 45% 29.79 1008.1
05 02:53 W 6 10.00 Fair CLR 64.9 42.1 43% 29.78 1007.6
05 01:53 W 7 10.00 Partly Cloudy SCT120 68 42.1 39% 29.77 1007.2
05 00:53 N 6 10.00 Mostly Cloudy BKN110 68 41 38% 29.77 1007.4
04 23:53 W 5 10.00 Mostly Cloudy BKN120 70 41 35% 29.76 1006.8
04 22:53 N 9 10.00 A Few Clouds FEW120 71.1 39.9 89.1 71.1 32% 29.75 1006.7
04 21:53 W 8 10.00 Partly Cloudy SCT120 73.9 39.9 29% 29.74 1006.3
04 20:53 NW 10 G 22 10.00 Fair CLR 77 39 26% 77 29.71 1005.5
04 19:53 NW 18 10.00 Fair CLR 81 37.9 21% 79 29.69 1004.6
04 18:53 NW 17 G 28 10.00 Partly Cloudy SCT110 84.9 36 17% 82 29.68 1004.4
Date Time (pdt) Wind (mph) Vis. (mi.) Weather Sky Cond. Air Dwpt Max. Min. Relative Humidity Wind Chill (°F) Heat Index (°F) altimeter (in) sea level (mb) 1 hr 3 hr 6 hr
6 hour
Temperature (ºF) Pressure Precipitation (in)